createdAt,value
2017-06-05T00:01:31.719Z,98807
2017-06-05T00:03:59.807Z,98810
2017-06-05T00:06:27.920Z,98808
2017-06-05T00:08:56.016Z,98807
2017-06-05T00:11:24.091Z,98812
2017-06-05T00:13:52.163Z,98805
2017-06-05T00:16:20.249Z,98813
2017-06-05T00:18:48.332Z,98804
2017-06-05T00:21:16.428Z,98801
2017-06-05T00:23:44.499Z,98807
2017-06-05T00:26:12.596Z,98799
2017-06-05T00:28:40.668Z,98805
2017-06-05T00:31:08.751Z,98812
2017-06-05T00:33:37.595Z,98801
2017-06-05T00:36:05.679Z,98803
2017-06-05T00:38:33.774Z,98806
2017-06-05T00:41:02.619Z,98795
2017-06-05T00:43:30.794Z,98809
2017-06-05T00:45:58.869Z,98813
2017-06-05T00:48:26.966Z,98815
2017-06-05T00:50:55.040Z,98817
2017-06-05T00:53:23.131Z,98824
2017-06-05T00:55:51.204Z,98824
2017-06-05T00:58:19.277Z,98816
2017-06-05T01:00:47.357Z,98824
2017-06-05T01:03:16.196Z,98821
2017-06-05T01:05:44.364Z,98829
2017-06-05T01:08:12.443Z,98836
2017-06-05T01:10:40.519Z,98837
2017-06-05T01:13:08.591Z,98836
2017-06-05T01:15:36.684Z,98835
2017-06-05T01:18:04.756Z,98829
2017-06-05T01:20:32.832Z,98846
2017-06-05T01:23:00.918Z,98851
2017-06-05T01:25:28.996Z,98847
2017-06-05T01:27:57.075Z,98843
2017-06-05T01:30:25.916Z,98837
2017-06-05T01:32:54.008Z,98843
2017-06-05T01:35:22.084Z,98828
2017-06-05T01:37:50.177Z,98833
2017-06-05T01:40:18.256Z,98836
2017-06-05T01:42:46.341Z,98825
2017-06-05T01:45:15.188Z,98828
2017-06-05T01:47:43.260Z,98826
2017-06-05T01:50:11.337Z,98825
2017-06-05T01:52:39.403Z,98819
2017-06-05T01:55:07.499Z,98816
2017-06-05T01:57:35.580Z,98816
2017-06-05T02:00:04.423Z,98808
2017-06-05T02:02:32.552Z,98816
2017-06-05T02:05:01.393Z,98819
2017-06-05T02:07:29.491Z,98821
2017-06-05T02:09:57.559Z,98821
2017-06-05T02:12:25.647Z,98822
2017-06-05T02:14:54.491Z,98826
2017-06-05T02:17:22.592Z,98826
2017-06-05T02:19:50.672Z,98825
2017-06-05T02:22:18.747Z,98826
2017-06-05T02:24:46.836Z,98826
2017-06-05T02:27:14.907Z,98827
2017-06-05T02:29:42.991Z,98823
2017-06-05T02:32:11.065Z,98826
2017-06-05T02:34:39.938Z,98829
2017-06-05T02:37:08.008Z,98826
2017-06-05T02:39:36.079Z,98818
2017-06-05T02:42:04.151Z,98819
2017-06-05T02:44:32.223Z,98826
2017-06-05T02:47:00.312Z,98825
2017-06-05T02:49:29.152Z,98824
2017-06-05T02:51:57.252Z,98827
2017-06-05T02:54:25.323Z,98833
2017-06-05T02:56:53.452Z,98838
2017-06-05T02:59:21.528Z,98833
2017-06-05T03:01:49.608Z,98829
2017-06-05T03:04:17.705Z,98822
2017-06-05T03:06:45.775Z,98828
2017-06-05T03:09:13.869Z,98828
2017-06-05T03:11:41.944Z,98826
2017-06-05T03:14:10.017Z,98829
2017-06-05T03:16:38.097Z,98826
2017-06-05T03:19:06.953Z,98841
2017-06-05T03:21:35.037Z,98837
2017-06-05T03:24:03.116Z,98838
2017-06-05T03:26:31.196Z,98839
2017-06-05T03:28:59.324Z,98842
2017-06-05T03:31:27.409Z,98838
2017-06-05T03:33:55.488Z,98832
2017-06-05T03:36:23.567Z,98825
2017-06-05T03:38:51.648Z,98824
2017-06-05T03:41:19.737Z,98821
2017-06-05T03:43:47.840Z,98826
2017-06-05T03:46:16.003Z,98826
2017-06-05T03:48:44.075Z,98823
2017-06-05T03:51:12.152Z,98826
2017-06-05T03:53:40.266Z,98823
2017-06-05T03:56:08.343Z,98823
2017-06-05T03:58:36.421Z,98834
2017-06-05T04:01:04.735Z,98825
2017-06-05T04:03:33.588Z,98824
2017-06-05T04:06:01.688Z,98825
2017-06-05T04:08:29.760Z,98818
2017-06-05T04:10:58.611Z,98817
2017-06-05T04:13:26.684Z,98820
2017-06-05T04:15:54.783Z,98814
2017-06-05T04:18:22.866Z,98809
2017-06-05T04:20:50.940Z,98805
2017-06-05T04:23:19.797Z,98804
2017-06-05T04:25:47.876Z,98797
2017-06-05T04:28:15.964Z,98804
2017-06-05T04:30:44.048Z,98804
2017-06-05T04:33:12.129Z,98807
2017-06-05T04:35:40.971Z,98810
2017-06-05T04:38:09.060Z,98807
2017-06-05T04:40:37.146Z,98811
2017-06-05T04:43:05.216Z,98814
2017-06-05T04:45:33.299Z,98813
2017-06-05T04:48:01.372Z,98809
2017-06-05T04:50:29.448Z,98812
2017-06-05T04:52:58.292Z,98808
2017-06-05T04:55:26.381Z,98819
2017-06-05T04:57:54.456Z,98817
2017-06-05T05:00:22.545Z,98818
2017-06-05T05:02:50.624Z,98817
2017-06-05T05:05:18.695Z,98820
2017-06-05T05:07:46.886Z,98828
2017-06-05T05:10:14.975Z,98818
2017-06-05T05:12:43.065Z,98818
2017-06-05T05:15:11.139Z,98815
2017-06-05T05:17:39.237Z,98817
2017-06-05T05:20:07.314Z,98818
2017-06-05T05:22:35.413Z,98814
2017-06-05T05:25:03.495Z,98814
2017-06-05T05:27:32.343Z,98825
2017-06-05T05:30:00.422Z,98813
2017-06-05T05:32:28.492Z,98814
2017-06-05T05:34:56.664Z,98824
2017-06-05T05:37:24.735Z,98824
2017-06-05T05:39:52.824Z,98818
2017-06-05T05:42:20.905Z,98820
2017-06-05T05:44:49.000Z,98819
2017-06-05T05:47:17.076Z,98821
2017-06-05T05:49:45.170Z,98824
2017-06-05T05:52:13.261Z,98823
2017-06-05T05:54:41.335Z,98828
2017-06-05T05:57:09.421Z,98820
2017-06-05T05:59:37.491Z,98825
2017-06-05T06:02:05.567Z,98818
2017-06-05T06:04:33.637Z,98810
2017-06-05T06:07:01.731Z,98809
2017-06-05T06:09:29.804Z,98809
2017-06-05T06:11:57.881Z,98804
2017-06-05T06:14:26.731Z,98812
2017-06-05T06:16:54.805Z,98812
2017-06-05T06:19:22.890Z,98811
2017-06-05T06:21:50.967Z,98811
2017-06-05T06:24:19.040Z,98814
2017-06-05T06:26:47.108Z,98816
2017-06-05T06:29:15.193Z,98816
2017-06-05T06:31:43.268Z,98817
2017-06-05T06:34:11.371Z,98818
2017-06-05T06:36:39.449Z,98817
2017-06-05T06:39:07.523Z,98814
2017-06-05T06:41:35.615Z,98819
2017-06-05T06:44:03.723Z,98812
2017-06-05T06:46:31.788Z,98820
2017-06-05T06:48:59.884Z,98830
2017-06-05T06:51:27.965Z,98823
2017-06-05T06:53:56.039Z,98824
2017-06-05T06:56:24.907Z,98818
2017-06-05T06:58:52.981Z,98821
2017-06-05T07:01:21.064Z,98817
2017-06-05T07:03:49.144Z,98821
2017-06-05T07:06:17.984Z,98815
2017-06-05T07:08:46.070Z,98816
2017-06-05T07:11:14.148Z,98812
2017-06-05T07:13:42.237Z,98815
2017-06-05T07:16:10.308Z,98812
2017-06-05T07:18:38.412Z,98815
2017-06-05T07:21:06.486Z,98801
2017-06-05T07:23:34.555Z,98807
2017-06-05T07:26:02.640Z,98806
2017-06-05T07:28:30.743Z,98808
2017-06-05T07:30:58.827Z,98804
2017-06-05T07:33:26.908Z,98798
2017-06-05T07:35:54.992Z,98797
2017-06-05T07:38:23.072Z,98788
2017-06-05T07:40:51.147Z,98799
2017-06-05T07:43:19.224Z,98797
2017-06-05T07:45:48.072Z,98792
2017-06-05T07:48:16.160Z,98803
2017-06-05T07:50:44.224Z,98795
2017-06-05T07:53:12.312Z,98797
2017-06-05T07:55:40.412Z,98792
2017-06-05T07:58:09.268Z,98800
2017-06-05T08:00:37.353Z,98792
2017-06-05T08:03:05.455Z,98788
2017-06-05T08:05:33.536Z,98791
2017-06-05T08:08:01.627Z,98778
2017-06-05T08:10:29.776Z,98787
2017-06-05T08:12:58.623Z,98787
2017-06-05T08:15:26.707Z,98782
2017-06-05T08:17:54.788Z,98782
2017-06-05T08:20:22.887Z,98777
2017-06-05T08:22:50.967Z,98781
2017-06-05T08:25:19.131Z,98778
2017-06-05T08:27:47.255Z,98777
2017-06-05T08:30:15.327Z,98774
2017-06-05T08:32:43.431Z,98771
2017-06-05T08:35:12.271Z,98780
2017-06-05T08:37:40.360Z,98763
2017-06-05T08:40:08.968Z,98759
2017-06-05T08:42:37.068Z,98758
2017-06-05T08:45:05.146Z,98752
2017-06-05T08:47:33.500Z,98750
2017-06-05T08:50:01.571Z,98737
2017-06-05T08:52:30.420Z,98740
2017-06-05T08:54:58.532Z,98735
2017-06-05T08:57:26.628Z,98739
2017-06-05T08:59:54.712Z,98725
2017-06-05T09:02:22.789Z,98732
2017-06-05T09:04:50.886Z,98732
2017-06-05T09:07:18.968Z,98731
2017-06-05T09:09:47.053Z,98726
2017-06-05T09:12:15.146Z,98725
2017-06-05T09:14:43.239Z,98727
2017-06-05T09:17:11.316Z,98720
2017-06-05T09:19:39.392Z,98712
2017-06-05T09:22:19.153Z,98716
2017-06-05T09:24:47.232Z,98718
2017-06-05T09:27:15.310Z,98721
2017-06-05T09:29:49.087Z,98711
2017-06-05T09:32:17.196Z,98715
2017-06-05T09:34:45.279Z,98713
2017-06-05T09:37:13.352Z,98709
2017-06-05T09:39:41.439Z,98709
2017-06-05T09:42:09.511Z,98711
2017-06-05T09:44:37.591Z,98706
2017-06-05T09:47:05.667Z,98704
2017-06-05T09:49:34.525Z,98696
2017-06-05T09:52:02.604Z,98704
2017-06-05T09:54:30.707Z,98697
2017-06-05T09:56:59.669Z,98704
2017-06-05T09:59:27.795Z,98697
2017-06-05T10:01:55.882Z,98698
2017-06-05T10:04:23.963Z,98690
2017-06-05T10:06:52.053Z,98694
2017-06-05T10:09:20.135Z,98696
2017-06-05T10:11:48.239Z,98689
2017-06-05T10:14:17.081Z,98688
2017-06-05T10:16:45.150Z,98691
2017-06-05T10:19:13.244Z,98687
2017-06-05T10:21:41.314Z,98688
2017-06-05T10:24:09.387Z,98686
2017-06-05T10:26:37.488Z,98690
2017-06-05T10:29:05.568Z,98687
2017-06-05T10:31:33.640Z,98673
2017-06-05T10:34:01.755Z,98671
2017-06-05T10:36:29.832Z,98668
2017-06-05T10:38:57.916Z,98663
2017-06-05T10:41:26.007Z,98658
2017-06-05T10:43:54.087Z,98657
2017-06-05T10:46:22.167Z,98647
2017-06-05T10:48:51.019Z,98652
2017-06-05T10:51:19.107Z,98655
2017-06-05T10:53:47.199Z,98649
2017-06-05T10:56:15.560Z,98641
2017-06-05T10:58:43.680Z,98646
2017-06-05T11:01:11.751Z,98629
2017-06-05T11:03:39.836Z,98644
2017-06-05T11:06:07.908Z,98635
2017-06-05T11:08:35.995Z,98620
2017-06-05T11:11:04.072Z,98626
2017-06-05T11:13:32.151Z,98628
2017-06-05T11:16:00.268Z,98620
2017-06-05T11:18:29.136Z,98628
2017-06-05T11:20:57.202Z,98630
2017-06-05T11:23:25.285Z,98626
2017-06-05T11:25:53.364Z,98623
2017-06-05T11:28:21.430Z,98613
2017-06-05T11:30:49.507Z,98618
2017-06-05T11:33:17.637Z,98604
2017-06-05T11:35:45.716Z,98603
2017-06-05T11:38:13.787Z,98601
2017-06-05T11:40:41.896Z,98598
2017-06-05T11:43:09.968Z,98597
2017-06-05T11:45:38.048Z,98592
2017-06-05T11:48:06.128Z,98589
2017-06-05T11:50:34.356Z,98580
2017-06-05T11:53:02.436Z,98578
2017-06-05T11:55:30.508Z,98579
2017-06-05T11:57:58.617Z,98576
2017-06-05T12:00:26.692Z,98571
2017-06-05T12:02:54.774Z,98571
2017-06-05T12:05:23.628Z,98575
2017-06-05T12:07:51.840Z,98568
2017-06-05T12:10:20.691Z,98567
2017-06-05T12:12:48.772Z,98571
2017-06-05T12:15:16.851Z,98570
2017-06-05T12:17:44.929Z,98569
2017-06-05T12:20:13.030Z,98575
2017-06-05T12:22:41.096Z,98568
2017-06-05T12:25:09.938Z,98574
2017-06-05T12:27:38.025Z,98570
2017-06-05T12:30:06.121Z,98573
2017-06-05T12:32:34.995Z,98581
2017-06-05T12:35:03.072Z,98580
2017-06-05T12:37:31.152Z,98575
2017-06-05T12:39:59.683Z,98581
2017-06-05T12:42:27.784Z,98584
2017-06-05T12:44:55.856Z,98585
2017-06-05T12:47:23.926Z,98585
2017-06-05T12:49:52.032Z,98583
2017-06-05T12:52:20.871Z,98586
2017-06-05T12:54:48.966Z,98598
2017-06-05T12:57:17.036Z,98594
2017-06-05T12:59:45.123Z,98596
2017-06-05T13:02:13.196Z,98597
2017-06-05T13:04:41.276Z,98595
2017-06-05T13:07:09.339Z,98596
2017-06-05T13:09:37.451Z,98592
2017-06-05T13:12:05.530Z,98590
2017-06-05T13:14:33.644Z,98587
2017-06-05T13:17:01.730Z,98595
2017-06-05T13:19:29.812Z,98593
2017-06-05T13:21:57.889Z,98607
2017-06-05T13:24:26.728Z,98608
2017-06-05T13:26:54.811Z,98611
2017-06-05T13:29:22.884Z,98614
2017-06-05T13:31:50.987Z,98628
2017-06-05T13:34:19.120Z,98614
2017-06-05T13:36:47.196Z,98618
2017-06-05T13:39:15.283Z,98609
2017-06-05T13:41:43.361Z,98612
2017-06-05T13:44:11.435Z,98619
2017-06-05T13:46:39.515Z,98628
2017-06-05T13:49:07.599Z,98634
2017-06-05T13:51:35.680Z,98637
2017-06-05T13:54:04.557Z,98648
2017-06-05T13:56:32.721Z,98652
2017-06-05T13:59:00.789Z,98653
2017-06-05T14:01:28.871Z,98667
2017-06-05T14:03:56.973Z,98660
2017-06-05T14:06:25.824Z,98648
2017-06-05T14:08:53.904Z,98654
2017-06-05T14:11:21.985Z,98655
2017-06-05T14:13:50.083Z,98645
2017-06-05T14:16:18.928Z,98648
2017-06-05T14:18:47.084Z,98640
2017-06-05T14:21:15.161Z,98650
2017-06-05T14:23:43.252Z,98649
2017-06-05T14:26:11.360Z,98649
2017-06-05T14:28:40.211Z,98648
2017-06-05T14:31:08.283Z,98644
2017-06-05T14:33:36.364Z,98635
2017-06-05T14:36:04.457Z,98644
2017-06-05T14:38:32.542Z,98642
2017-06-05T14:41:01.460Z,98633
2017-06-05T14:43:29.548Z,98622
2017-06-05T14:45:58.203Z,98617
2017-06-05T14:48:26.332Z,98619
2017-06-05T14:50:54.425Z,98612
2017-06-05T14:53:22.495Z,98613
2017-06-05T14:55:50.664Z,98609
2017-06-05T14:58:19.508Z,98602
2017-06-05T15:00:47.596Z,98611
2017-06-05T15:03:15.876Z,98611
2017-06-05T15:05:43.983Z,98615
2017-06-05T15:08:12.436Z,98613
2017-06-05T15:10:40.521Z,98611
2017-06-05T15:13:08.922Z,98619
2017-06-05T15:15:38.428Z,98613
2017-06-05T15:18:11.841Z,98606
2017-06-05T15:20:40.275Z,98605
2017-06-05T15:23:08.363Z,98598
2017-06-05T15:25:36.481Z,98599
2017-06-05T15:28:05.667Z,98596
2017-06-05T15:30:33.790Z,98593
2017-06-05T15:33:01.862Z,98599
2017-06-05T15:35:30.024Z,98598
2017-06-05T15:37:58.105Z,98599
2017-06-05T15:40:26.190Z,98596
2017-06-05T15:42:54.272Z,98593
2017-06-05T15:45:22.339Z,98595
2017-06-05T15:47:50.447Z,98588
2017-06-05T15:50:18.540Z,98593
2017-06-05T15:52:46.624Z,98584
2017-06-05T15:55:14.712Z,98576
2017-06-05T15:57:42.810Z,98577
2017-06-05T16:00:10.968Z,98572
2017-06-05T16:02:39.038Z,98561
2017-06-05T16:05:07.109Z,98569
2017-06-05T16:07:35.179Z,98563
2017-06-05T16:10:03.267Z,98566
2017-06-05T16:12:31.358Z,98556
2017-06-05T16:15:00.221Z,98562
2017-06-05T16:17:28.289Z,98556
2017-06-05T16:19:56.404Z,98556
2017-06-05T16:22:24.480Z,98559
2017-06-05T16:24:52.637Z,98550
2017-06-05T16:27:21.487Z,98551
2017-06-05T16:29:49.579Z,98558
2017-06-05T16:32:17.695Z,98547
2017-06-05T16:34:45.812Z,98547
2017-06-05T16:37:13.915Z,98552
2017-06-05T16:39:41.980Z,98544
2017-06-05T16:42:10.120Z,98537
2017-06-05T16:44:38.195Z,98534
2017-06-05T16:47:06.364Z,98536
2017-06-05T16:49:34.442Z,98540
2017-06-05T16:52:02.525Z,98524
2017-06-05T16:54:30.607Z,98523
2017-06-05T16:56:58.675Z,98513
2017-06-05T16:59:26.759Z,98504
2017-06-05T17:01:54.836Z,98519
2017-06-05T17:04:22.931Z,98504
2017-06-05T17:06:50.999Z,98502
2017-06-05T17:09:19.839Z,98495
2017-06-05T17:11:47.929Z,98495
2017-06-05T17:14:17.524Z,98499
2017-06-05T17:16:45.604Z,98496
2017-06-05T17:19:13.690Z,98494
2017-06-05T17:21:41.763Z,98493
2017-06-05T17:24:09.847Z,98492
2017-06-05T17:26:37.944Z,98489
2017-06-05T17:29:06.015Z,98494
2017-06-05T17:31:34.091Z,98493
2017-06-05T17:34:02.168Z,98486
2017-06-05T17:36:30.251Z,98488
2017-06-05T17:38:58.339Z,98481
2017-06-05T17:41:26.415Z,98479
2017-06-05T17:43:54.499Z,98474
2017-06-05T17:46:22.576Z,98482
2017-06-05T17:48:50.652Z,98475
2017-06-05T17:51:18.748Z,98468
2017-06-05T17:53:47.591Z,98466
2017-06-05T17:56:15.671Z,98464
2017-06-05T17:58:43.747Z,98473
2017-06-05T18:01:11.854Z,98461
2017-06-05T18:03:39.926Z,98460
2017-06-05T18:06:08.766Z,98457
2017-06-05T18:08:36.851Z,98461
2017-06-05T18:14:03.047Z,98450
2017-06-05T18:16:31.947Z,98449
2017-06-05T18:19:00.033Z,98450
2017-06-05T18:21:28.100Z,98442
2017-06-05T18:23:56.207Z,98450
2017-06-05T18:26:24.291Z,98443
2017-06-05T18:28:52.370Z,98441
2017-06-05T18:31:20.461Z,98442
2017-06-05T18:33:48.944Z,98441
2017-06-05T18:36:17.799Z,98443
2017-06-05T18:38:45.880Z,98441
2017-06-05T18:41:13.968Z,98430
2017-06-05T18:43:42.039Z,98431
2017-06-05T18:46:10.143Z,98430
2017-06-05T18:48:38.218Z,98437
2017-06-05T18:51:06.283Z,98430
2017-06-05T18:53:35.135Z,98443
2017-06-05T18:56:03.205Z,98426
2017-06-05T18:58:31.304Z,98432
2017-06-05T19:00:59.377Z,98431
2017-06-05T19:03:27.470Z,98425
2017-06-05T19:05:55.553Z,98427
2017-06-05T19:08:23.645Z,98428
2017-06-05T19:10:51.736Z,98425
2017-06-05T19:13:19.811Z,98423
2017-06-05T19:15:47.898Z,98429
2017-06-05T19:18:15.987Z,98427
2017-06-05T19:20:44.083Z,98428
2017-06-05T19:23:12.182Z,98433
2017-06-05T19:25:40.263Z,98434
2017-06-05T19:28:08.348Z,98435
2017-06-05T19:30:36.419Z,98431
2017-06-05T19:33:04.528Z,98427
2017-06-05T19:35:32.621Z,98428
2017-06-05T19:38:00.719Z,98428
2017-06-05T19:40:28.798Z,98434
2017-06-05T19:42:56.899Z,98427
2017-06-05T19:45:24.990Z,98434
2017-06-05T19:47:53.069Z,98431
2017-06-05T19:50:21.919Z,98431
2017-06-05T19:52:49.995Z,98420
2017-06-05T19:55:18.075Z,98422
2017-06-05T19:57:46.147Z,98424
2017-06-05T20:00:15.179Z,98428
2017-06-05T20:02:43.247Z,98417
2017-06-05T20:05:12.096Z,98421
2017-06-05T20:07:40.163Z,98413
2017-06-05T20:10:08.268Z,98428
2017-06-05T20:12:37.120Z,98423
2017-06-05T20:15:05.207Z,98426
2017-06-05T20:17:33.295Z,98419
2017-06-05T20:20:01.367Z,98414
2017-06-05T20:22:29.448Z,98417
2017-06-05T20:24:58.301Z,98424
2017-06-05T20:27:26.384Z,98420
2017-06-05T20:29:54.455Z,98418
2017-06-05T20:32:22.544Z,98418
2017-06-05T20:34:50.618Z,98415
2017-06-05T20:37:19.388Z,98407
2017-06-05T20:39:47.472Z,98416
2017-06-05T20:42:15.544Z,98411
2017-06-05T20:44:43.631Z,98406
2017-06-05T20:47:12.166Z,98400
2017-06-05T20:49:40.252Z,98404
2017-06-05T20:52:08.331Z,98397
2017-06-05T20:54:36.463Z,98395
2017-06-05T20:57:04.540Z,98402
2017-06-05T20:59:32.604Z,98395
2017-06-05T21:02:00.753Z,98400
2017-06-05T21:04:28.811Z,98399
2017-06-05T21:06:56.890Z,98396
2017-06-05T21:09:24.963Z,98398
2017-06-05T21:11:53.063Z,98395
2017-06-05T21:14:21.136Z,98392
2017-06-05T21:16:49.208Z,98391
2017-06-05T21:19:17.745Z,98387
2017-06-05T21:21:45.826Z,98385
2017-06-05T21:24:13.911Z,98383
2017-06-05T21:26:42.751Z,98371
2017-06-05T21:29:10.834Z,98370
2017-06-05T21:31:38.911Z,98372
2017-06-05T21:34:07.050Z,98364
2017-06-05T21:36:35.121Z,98372
2017-06-05T21:39:03.195Z,98362
2017-06-05T21:41:31.279Z,98368
2017-06-05T21:43:59.454Z,98373
2017-06-05T21:46:27.539Z,98355
2017-06-05T21:48:55.624Z,98351
2017-06-05T21:51:23.727Z,98350
2017-06-05T21:53:51.798Z,98341
2017-06-05T21:56:19.871Z,98350
2017-06-05T21:58:47.951Z,98330
2017-06-05T22:01:16.122Z,98336
2017-06-05T22:03:44.195Z,98329
2017-06-05T22:06:12.279Z,98329
2017-06-05T22:08:40.363Z,98328
2017-06-05T22:11:08.435Z,98332
2017-06-05T22:13:36.543Z,98326
2017-06-05T22:16:04.618Z,98335
2017-06-05T22:18:32.704Z,98320
2017-06-05T22:23:58.137Z,98318
2017-06-05T22:26:26.219Z,98310
2017-06-05T22:28:54.304Z,98307
2017-06-05T22:31:22.607Z,98306
2017-06-05T22:33:50.676Z,98298
2017-06-05T22:36:18.788Z,98304
2017-06-05T22:38:46.899Z,98298
2017-06-05T22:41:14.971Z,98301
2017-06-05T22:43:43.823Z,98296
2017-06-05T22:46:11.900Z,98303
2017-06-05T22:48:39.983Z,98290
2017-06-05T22:51:08.076Z,98279
2017-06-05T22:53:36.160Z,98283
2017-06-05T22:56:04.236Z,98282
2017-06-05T22:58:32.316Z,98283
2017-06-05T23:01:00.396Z,98279
2017-06-05T23:03:28.467Z,98274
2017-06-05T23:05:56.561Z,98266
2017-06-05T23:08:24.637Z,98267
2017-06-05T23:10:52.724Z,98265
2017-06-05T23:13:20.808Z,98263
2017-06-05T23:15:48.896Z,98253
2017-06-05T23:18:16.971Z,98247
2017-06-05T23:20:45.083Z,98246
2017-06-05T23:23:13.156Z,98235
2017-06-05T23:25:41.245Z,98241
2017-06-05T23:28:09.343Z,98235
2017-06-05T23:30:37.425Z,98236
2017-06-05T23:33:05.513Z,98230
2017-06-05T23:35:33.589Z,98225
2017-06-05T23:38:02.468Z,98228
2017-06-05T23:40:30.559Z,98226
2017-06-05T23:42:58.636Z,98223
2017-06-05T23:45:27.527Z,98220
2017-06-05T23:47:56.368Z,98209
2017-06-05T23:50:24.451Z,98224
2017-06-05T23:52:52.523Z,98215
2017-06-05T23:55:20.619Z,98209
2017-06-05T23:57:49.466Z,98208
